sensor_id;sensor_type;location;lat;lon;timestamp;P1;durP1;ratioP1;P2;durP2;ratioP2
64678;SDS011;51094;53.864;27.676;2022-12-18T00:02:10;4.00;;;3.90;;
64678;SDS011;51094;53.864;27.676;2022-12-18T00:04:36;3.92;;;3.83;;
64678;SDS011;51094;53.864;27.676;2022-12-18T00:07:03;4.30;;;4.20;;
64678;SDS011;51094;53.864;27.676;2022-12-18T00:09:30;3.40;;;3.40;;
64678;SDS011;51094;53.864;27.676;2022-12-18T00:12:06;3.97;;;3.88;;
64678;SDS011;51094;53.864;27.676;2022-12-18T00:14:41;4.00;;;3.90;;
64678;SDS011;51094;53.864;27.676;2022-12-18T00:17:08;3.85;;;3.75;;
64678;SDS011;51094;53.864;27.676;2022-12-18T00:19:35;3.58;;;3.58;;
64678;SDS011;51094;53.864;27.676;2022-12-18T00:22:02;3.75;;;3.65;;
64678;SDS011;51094;53.864;27.676;2022-12-18T00:24:29;3.97;;;3.88;;
64678;SDS011;51094;53.864;27.676;2022-12-18T00:26:55;4.13;;;4.03;;
64678;SDS011;51094;53.864;27.676;2022-12-18T00:29:22;3.67;;;3.58;;
64678;SDS011;51094;53.864;27.676;2022-12-18T00:31:48;3.83;;;3.72;;
64678;SDS011;51094;53.864;27.676;2022-12-18T00:34:15;3.72;;;3.63;;
64678;SDS011;51094;53.864;27.676;2022-12-18T00:36:42;3.67;;;3.58;;
64678;SDS011;51094;53.864;27.676;2022-12-18T00:39:11;3.50;;;3.40;;
64678;SDS011;51094;53.864;27.676;2022-12-18T00:41:38;3.83;;;3.72;;
64678;SDS011;51094;53.864;27.676;2022-12-18T00:44:24;3.90;;;3.80;;
64678;SDS011;51094;53.864;27.676;2022-12-18T00:46:51;3.60;;;3.50;;
64678;SDS011;51094;53.864;27.676;2022-12-18T00:49:18;4.03;;;3.92;;
64678;SDS011;51094;53.864;27.676;2022-12-18T00:51:46;3.50;;;3.40;;
64678;SDS011;51094;53.864;27.676;2022-12-18T00:54:14;4.10;;;4.00;;
64678;SDS011;51094;53.864;27.676;2022-12-18T00:56:41;4.05;;;3.95;;
64678;SDS011;51094;53.864;27.676;2022-12-18T00:59:19;4.00;;;3.90;;
64678;SDS011;51094;53.864;27.676;2022-12-18T01:01:45;3.78;;;3.67;;
64678;SDS011;51094;53.864;27.676;2022-12-18T01:04:13;3.60;;;3.50;;
64678;SDS011;51094;53.864;27.676;2022-12-18T01:06:40;4.00;;;3.90;;
64678;SDS011;51094;53.864;27.676;2022-12-18T01:09:06;3.90;;;3.80;;
64678;SDS011;51094;53.864;27.676;2022-12-18T01:11:35;4.45;;;4.35;;
64678;SDS011;51094;53.864;27.676;2022-12-18T01:14:03;4.60;;;4.50;;
64678;SDS011;51094;53.864;27.676;2022-12-18T01:16:30;4.32;;;4.22;;
64678;SDS011;51094;53.864;27.676;2022-12-18T01:18:57;4.18;;;4.07;;
64678;SDS011;51094;53.864;27.676;2022-12-18T01:21:26;3.92;;;3.83;;
64678;SDS011;51094;53.864;27.676;2022-12-18T01:23:54;4.07;;;3.97;;
64678;SDS011;51094;53.864;27.676;2022-12-18T01:26:22;4.32;;;4.22;;
64678;SDS011;51094;53.864;27.676;2022-12-18T01:28:50;3.88;;;3.78;;
64678;SDS011;51094;53.864;27.676;2022-12-18T01:31:18;4.07;;;3.97;;
64678;SDS011;51094;53.864;27.676;2022-12-18T01:33:51;4.00;;;3.90;;
64678;SDS011;51094;53.864;27.676;2022-12-18T01:36:19;4.10;;;4.00;;
64678;SDS011;51094;53.864;27.676;2022-12-18T01:38:49;4.07;;;3.97;;
64678;SDS011;51094;53.864;27.676;2022-12-18T01:41:18;4.43;;;4.32;;
64678;SDS011;51094;53.864;27.676;2022-12-18T01:43:52;3.95;;;3.85;;
64678;SDS011;51094;53.864;27.676;2022-12-18T01:46:21;4.00;;;3.90;;
64678;SDS011;51094;53.864;27.676;2022-12-18T01:48:50;4.13;;;4.03;;
64678;SDS011;51094;53.864;27.676;2022-12-18T01:51:19;3.90;;;3.80;;
64678;SDS011;51094;53.864;27.676;2022-12-18T01:53:47;3.83;;;3.72;;
64678;SDS011;51094;53.864;27.676;2022-12-18T01:56:15;3.85;;;3.75;;
64678;SDS011;51094;53.864;27.676;2022-12-18T01:58:58;3.80;;;3.70;;
64678;SDS011;51094;53.864;27.676;2022-12-18T02:01:29;3.67;;;3.58;;
64678;SDS011;51094;53.864;27.676;2022-12-18T02:06:51;3.70;;;3.60;;
64678;SDS011;51094;53.864;27.676;2022-12-18T02:09:31;3.72;;;3.63;;
64678;SDS011;51094;53.864;27.676;2022-12-18T02:14:58;3.50;;;3.40;;
64678;SDS011;51094;53.864;27.676;2022-12-18T02:17:39;3.67;;;3.58;;
64678;SDS011;51094;53.864;27.676;2022-12-18T02:28:22;3.65;;;3.55;;
64678;SDS011;51094;53.864;27.676;2022-12-18T02:30:54;3.60;;;3.50;;
64678;SDS011;51094;53.864;27.676;2022-12-18T02:33:24;3.65;;;3.55;;
64678;SDS011;51094;53.864;27.676;2022-12-18T02:38:23;3.20;;;3.20;;
64678;SDS011;51094;53.864;27.676;2022-12-18T02:40:53;2.97;;;2.97;;
64678;SDS011;51094;53.864;27.676;2022-12-18T02:43:21;3.30;;;3.20;;
64678;SDS011;51094;53.864;27.676;2022-12-18T02:45:50;3.33;;;3.22;;
64678;SDS011;51094;53.864;27.676;2022-12-18T02:48:27;3.35;;;3.25;;
64678;SDS011;51094;53.864;27.676;2022-12-18T02:51:32;3.38;;;3.38;;
64678;SDS011;51094;53.864;27.676;2022-12-18T02:54:09;3.00;;;3.00;;
64678;SDS011;51094;53.864;27.676;2022-12-18T02:56:46;3.42;;;3.33;;
64678;SDS011;51094;53.864;27.676;2022-12-18T02:59:31;3.47;;;3.38;;
64678;SDS011;51094;53.864;27.676;2022-12-18T03:02:20;3.15;;;3.05;;
64678;SDS011;51094;53.864;27.676;2022-12-18T03:04:59;3.45;;;3.35;;
64678;SDS011;51094;53.864;27.676;2022-12-18T03:10:11;3.05;;;3.05;;
64678;SDS011;51094;53.864;27.676;2022-12-18T03:12:43;3.05;;;2.95;;
64678;SDS011;51094;53.864;27.676;2022-12-18T03:15:16;2.88;;;2.88;;
64678;SDS011;51094;53.864;27.676;2022-12-18T03:18:01;2.78;;;2.78;;
64678;SDS011;51094;53.864;27.676;2022-12-18T03:20:31;3.10;;;3.10;;
64678;SDS011;51094;53.864;27.676;2022-12-18T03:23:07;3.00;;;3.00;;
64678;SDS011;51094;53.864;27.676;2022-12-18T03:25:38;2.70;;;2.70;;
64678;SDS011;51094;53.864;27.676;2022-12-18T03:30:38;2.60;;;2.60;;
64678;SDS011;51094;53.864;27.676;2022-12-18T03:33:09;2.78;;;2.78;;
64678;SDS011;51094;53.864;27.676;2022-12-18T03:35:43;2.67;;;2.67;;
64678;SDS011;51094;53.864;27.676;2022-12-18T03:38:11;2.70;;;2.70;;
64678;SDS011;51094;53.864;27.676;2022-12-18T03:41:03;2.72;;;2.72;;
64678;SDS011;51094;53.864;27.676;2022-12-18T03:44:12;2.42;;;2.42;;
64678;SDS011;51094;53.864;27.676;2022-12-18T03:46:56;2.38;;;2.38;;
64678;SDS011;51094;53.864;27.676;2022-12-18T03:49:46;2.38;;;2.38;;
64678;SDS011;51094;53.864;27.676;2022-12-18T03:52:20;2.50;;;2.50;;
64678;SDS011;51094;53.864;27.676;2022-12-18T03:54:54;2.83;;;2.83;;
64678;SDS011;51094;53.864;27.676;2022-12-18T03:57:24;2.60;;;2.60;;
64678;SDS011;51094;53.864;27.676;2022-12-18T03:59:56;2.42;;;2.42;;
64678;SDS011;51094;53.864;27.676;2022-12-18T04:02:40;2.53;;;2.53;;
64678;SDS011;51094;53.864;27.676;2022-12-18T04:05:14;2.33;;;2.33;;
64678;SDS011;51094;53.864;27.676;2022-12-18T04:07:43;2.53;;;2.53;;
64678;SDS011;51094;53.864;27.676;2022-12-18T04:10:13;3.00;;;3.00;;
64678;SDS011;51094;53.864;27.676;2022-12-18T04:12:42;2.53;;;2.53;;
64678;SDS011;51094;53.864;27.676;2022-12-18T04:15:11;2.83;;;2.80;;
64678;SDS011;51094;53.864;27.676;2022-12-18T04:17:39;2.30;;;2.30;;
64678;SDS011;51094;53.864;27.676;2022-12-18T04:20:16;2.35;;;2.35;;
64678;SDS011;51094;53.864;27.676;2022-12-18T04:22:44;2.70;;;2.60;;
64678;SDS011;51094;53.864;27.676;2022-12-18T04:25:12;2.10;;;2.10;;
64678;SDS011;51094;53.864;27.676;2022-12-18T04:27:51;2.17;;;2.17;;
64678;SDS011;51094;53.864;27.676;2022-12-18T04:30:18;2.20;;;2.20;;
64678;SDS011;51094;53.864;27.676;2022-12-18T04:32:45;2.28;;;2.28;;
64678;SDS011;51094;53.864;27.676;2022-12-18T04:35:18;2.38;;;2.38;;
64678;SDS011;51094;53.864;27.676;2022-12-18T04:37:45;2.08;;;2.08;;
64678;SDS011;51094;53.864;27.676;2022-12-18T04:40:13;2.30;;;2.30;;
64678;SDS011;51094;53.864;27.676;2022-12-18T04:42:44;2.28;;;2.28;;
64678;SDS011;51094;53.864;27.676;2022-12-18T04:45:10;2.35;;;2.35;;
64678;SDS011;51094;53.864;27.676;2022-12-18T04:47:37;2.15;;;2.15;;
64678;SDS011;51094;53.864;27.676;2022-12-18T04:50:04;2.25;;;2.25;;
64678;SDS011;51094;53.864;27.676;2022-12-18T04:52:31;2.50;;;2.50;;
64678;SDS011;51094;53.864;27.676;2022-12-18T04:54:58;2.53;;;2.53;;
64678;SDS011;51094;53.864;27.676;2022-12-18T04:57:25;2.53;;;2.53;;
64678;SDS011;51094;53.864;27.676;2022-12-18T04:59:52;2.20;;;2.20;;
64678;SDS011;51094;53.864;27.676;2022-12-18T05:02:19;2.20;;;2.20;;
64678;SDS011;51094;53.864;27.676;2022-12-18T05:04:45;2.45;;;2.45;;
64678;SDS011;51094;53.864;27.676;2022-12-18T05:07:12;2.20;;;2.20;;
64678;SDS011;51094;53.864;27.676;2022-12-18T05:09:39;2.00;;;2.00;;
64678;SDS011;51094;53.864;27.676;2022-12-18T05:12:07;2.13;;;2.13;;
64678;SDS011;51094;53.864;27.676;2022-12-18T05:14:37;2.08;;;2.08;;
64678;SDS011;51094;53.864;27.676;2022-12-18T05:17:04;2.50;;;2.50;;
64678;SDS011;51094;53.864;27.676;2022-12-18T05:19:31;1.90;;;1.90;;
64678;SDS011;51094;53.864;27.676;2022-12-18T05:21:57;2.40;;;2.40;;
64678;SDS011;51094;53.864;27.676;2022-12-18T05:24:24;2.15;;;2.15;;
64678;SDS011;51094;53.864;27.676;2022-12-18T05:26:51;2.20;;;2.20;;
64678;SDS011;51094;53.864;27.676;2022-12-18T05:29:18;2.20;;;2.20;;
64678;SDS011;51094;53.864;27.676;2022-12-18T05:31:45;2.17;;;2.17;;
64678;SDS011;51094;53.864;27.676;2022-12-18T05:34:12;2.22;;;2.22;;
64678;SDS011;51094;53.864;27.676;2022-12-18T05:36:39;2.30;;;2.30;;
64678;SDS011;51094;53.864;27.676;2022-12-18T05:39:05;2.42;;;2.42;;
64678;SDS011;51094;53.864;27.676;2022-12-18T05:41:33;2.25;;;2.25;;
64678;SDS011;51094;53.864;27.676;2022-12-18T05:44:00;2.70;;;2.70;;
64678;SDS011;51094;53.864;27.676;2022-12-18T05:46:26;2.28;;;2.28;;
64678;SDS011;51094;53.864;27.676;2022-12-18T05:48:53;2.35;;;2.35;;
64678;SDS011;51094;53.864;27.676;2022-12-18T05:51:21;2.70;;;2.70;;
64678;SDS011;51094;53.864;27.676;2022-12-18T05:53:48;2.50;;;2.50;;
64678;SDS011;51094;53.864;27.676;2022-12-18T05:56:16;2.65;;;2.65;;
64678;SDS011;51094;53.864;27.676;2022-12-18T05:58:45;2.50;;;2.50;;
64678;SDS011;51094;53.864;27.676;2022-12-18T06:01:22;2.30;;;2.30;;
64678;SDS011;51094;53.864;27.676;2022-12-18T06:03:53;2.13;;;2.13;;
64678;SDS011;51094;53.864;27.676;2022-12-18T06:06:21;2.10;;;2.10;;
64678;SDS011;51094;53.864;27.676;2022-12-18T06:08:50;2.10;;;2.10;;
64678;SDS011;51094;53.864;27.676;2022-12-18T06:11:18;2.20;;;2.20;;
64678;SDS011;51094;53.864;27.676;2022-12-18T06:13:46;2.42;;;2.42;;
64678;SDS011;51094;53.864;27.676;2022-12-18T06:16:23;2.00;;;2.00;;
64678;SDS011;51094;53.864;27.676;2022-12-18T06:18:50;2.40;;;2.40;;
64678;SDS011;51094;53.864;27.676;2022-12-18T06:21:17;2.33;;;2.33;;
64678;SDS011;51094;53.864;27.676;2022-12-18T06:23:43;2.45;;;2.45;;
64678;SDS011;51094;53.864;27.676;2022-12-18T06:26:11;2.20;;;2.20;;
64678;SDS011;51094;53.864;27.676;2022-12-18T06:28:39;2.30;;;2.30;;
64678;SDS011;51094;53.864;27.676;2022-12-18T06:31:10;2.22;;;2.22;;
64678;SDS011;51094;53.864;27.676;2022-12-18T06:33:43;2.30;;;2.30;;
64678;SDS011;51094;53.864;27.676;2022-12-18T06:36:11;2.20;;;2.20;;
64678;SDS011;51094;53.864;27.676;2022-12-18T06:38:42;2.50;;;2.50;;
64678;SDS011;51094;53.864;27.676;2022-12-18T06:41:17;2.38;;;2.38;;
64678;SDS011;51094;53.864;27.676;2022-12-18T06:43:46;1.95;;;1.95;;
64678;SDS011;51094;53.864;27.676;2022-12-18T06:46:13;2.10;;;2.10;;
64678;SDS011;51094;53.864;27.676;2022-12-18T06:48:40;2.40;;;2.40;;
64678;SDS011;51094;53.864;27.676;2022-12-18T06:51:07;2.25;;;2.25;;
64678;SDS011;51094;53.864;27.676;2022-12-18T06:53:34;2.40;;;2.40;;
64678;SDS011;51094;53.864;27.676;2022-12-18T06:56:05;2.27;;;2.27;;
64678;SDS011;51094;53.864;27.676;2022-12-18T06:58:36;2.20;;;2.20;;
64678;SDS011;51094;53.864;27.676;2022-12-18T07:01:04;2.35;;;2.35;;
64678;SDS011;51094;53.864;27.676;2022-12-18T07:03:33;2.00;;;2.00;;
64678;SDS011;51094;53.864;27.676;2022-12-18T07:06:01;2.25;;;2.25;;
64678;SDS011;51094;53.864;27.676;2022-12-18T07:08:28;2.30;;;2.30;;
64678;SDS011;51094;53.864;27.676;2022-12-18T07:10:56;2.03;;;2.03;;
64678;SDS011;51094;53.864;27.676;2022-12-18T07:13:23;2.20;;;2.20;;
64678;SDS011;51094;53.864;27.676;2022-12-18T07:15:50;2.08;;;2.08;;
64678;SDS011;51094;53.864;27.676;2022-12-18T07:18:17;2.05;;;2.05;;
64678;SDS011;51094;53.864;27.676;2022-12-18T07:20:43;2.38;;;2.38;;
64678;SDS011;51094;53.864;27.676;2022-12-18T07:23:11;2.20;;;2.20;;
64678;SDS011;51094;53.864;27.676;2022-12-18T07:25:38;2.90;;;2.90;;
64678;SDS011;51094;53.864;27.676;2022-12-18T07:28:05;2.40;;;2.40;;
64678;SDS011;51094;53.864;27.676;2022-12-18T07:30:37;2.22;;;2.22;;
64678;SDS011;51094;53.864;27.676;2022-12-18T07:33:04;2.17;;;2.17;;
64678;SDS011;51094;53.864;27.676;2022-12-18T07:35:32;2.35;;;2.35;;
64678;SDS011;51094;53.864;27.676;2022-12-18T07:37:59;2.22;;;2.22;;
64678;SDS011;51094;53.864;27.676;2022-12-18T07:40:26;2.40;;;2.40;;
64678;SDS011;51094;53.864;27.676;2022-12-18T07:42:53;2.85;;;2.75;;
64678;SDS011;51094;53.864;27.676;2022-12-18T07:45:20;2.60;;;2.60;;
64678;SDS011;51094;53.864;27.676;2022-12-18T07:47:47;2.60;;;2.60;;
64678;SDS011;51094;53.864;27.676;2022-12-18T07:50:14;2.70;;;2.70;;
64678;SDS011;51094;53.864;27.676;2022-12-18T07:52:41;3.10;;;3.00;;
64678;SDS011;51094;53.864;27.676;2022-12-18T07:55:08;3.53;;;3.42;;
64678;SDS011;51094;53.864;27.676;2022-12-18T07:57:35;3.17;;;3.17;;
64678;SDS011;51094;53.864;27.676;2022-12-18T08:00:22;3.08;;;3.08;;
64678;SDS011;51094;53.864;27.676;2022-12-18T08:02:49;2.95;;;2.95;;
64678;SDS011;51094;53.864;27.676;2022-12-18T08:05:16;2.92;;;2.92;;
64678;SDS011;51094;53.864;27.676;2022-12-18T08:07:43;3.10;;;3.10;;
64678;SDS011;51094;53.864;27.676;2022-12-18T08:10:10;2.58;;;2.58;;
64678;SDS011;51094;53.864;27.676;2022-12-18T08:12:37;2.70;;;2.70;;
64678;SDS011;51094;53.864;27.676;2022-12-18T08:15:06;2.97;;;2.97;;
64678;SDS011;51094;53.864;27.676;2022-12-18T08:17:33;2.80;;;2.80;;
64678;SDS011;51094;53.864;27.676;2022-12-18T08:20:00;2.75;;;2.75;;
64678;SDS011;51094;53.864;27.676;2022-12-18T08:22:27;2.70;;;2.70;;
64678;SDS011;51094;53.864;27.676;2022-12-18T08:24:54;2.53;;;2.53;;
64678;SDS011;51094;53.864;27.676;2022-12-18T08:27:21;2.55;;;2.55;;
64678;SDS011;51094;53.864;27.676;2022-12-18T08:29:56;2.47;;;2.47;;
64678;SDS011;51094;53.864;27.676;2022-12-18T08:32:24;2.70;;;2.70;;
64678;SDS011;51094;53.864;27.676;2022-12-18T08:34:52;2.65;;;2.65;;
64678;SDS011;51094;53.864;27.676;2022-12-18T08:37:18;2.63;;;2.63;;
64678;SDS011;51094;53.864;27.676;2022-12-18T08:39:45;2.60;;;2.60;;
64678;SDS011;51094;53.864;27.676;2022-12-18T08:42:12;2.70;;;2.70;;
64678;SDS011;51094;53.864;27.676;2022-12-18T08:44:58;2.35;;;2.35;;
64678;SDS011;51094;53.864;27.676;2022-12-18T08:47:25;2.50;;;2.50;;
64678;SDS011;51094;53.864;27.676;2022-12-18T08:49:52;2.50;;;2.50;;
64678;SDS011;51094;53.864;27.676;2022-12-18T08:52:19;2.40;;;2.40;;
64678;SDS011;51094;53.864;27.676;2022-12-18T08:54:46;2.58;;;2.58;;
64678;SDS011;51094;53.864;27.676;2022-12-18T08:57:13;2.50;;;2.50;;
64678;SDS011;51094;53.864;27.676;2022-12-18T08:59:40;2.70;;;2.70;;
64678;SDS011;51094;53.864;27.676;2022-12-18T09:02:10;2.47;;;2.47;;
64678;SDS011;51094;53.864;27.676;2022-12-18T09:04:38;2.47;;;2.47;;
64678;SDS011;51094;53.864;27.676;2022-12-18T09:07:06;2.60;;;2.60;;
64678;SDS011;51094;53.864;27.676;2022-12-18T09:09:33;2.13;;;2.13;;
64678;SDS011;51094;53.864;27.676;2022-12-18T09:11:59;2.60;;;2.60;;
64678;SDS011;51094;53.864;27.676;2022-12-18T09:14:26;2.58;;;2.58;;
64678;SDS011;51094;53.864;27.676;2022-12-18T09:16:53;2.45;;;2.45;;
64678;SDS011;51094;53.864;27.676;2022-12-18T09:19:20;2.50;;;2.50;;
64678;SDS011;51094;53.864;27.676;2022-12-18T09:21:47;2.47;;;2.47;;
64678;SDS011;51094;53.864;27.676;2022-12-18T09:24:15;2.40;;;2.40;;
64678;SDS011;51094;53.864;27.676;2022-12-18T09:26:42;3.08;;;3.08;;
64678;SDS011;51094;53.864;27.676;2022-12-18T09:29:14;2.50;;;2.50;;
64678;SDS011;51094;53.864;27.676;2022-12-18T09:31:44;2.55;;;2.55;;
64678;SDS011;51094;53.864;27.676;2022-12-18T09:34:11;2.60;;;2.60;;
64678;SDS011;51094;53.864;27.676;2022-12-18T09:36:39;2.33;;;2.33;;
64678;SDS011;51094;53.864;27.676;2022-12-18T09:39:06;2.50;;;2.50;;
64678;SDS011;51094;53.864;27.676;2022-12-18T09:41:37;2.90;;;2.90;;
64678;SDS011;51094;53.864;27.676;2022-12-18T09:47:39;2.42;;;2.42;;
64678;SDS011;51094;53.864;27.676;2022-12-18T09:50:32;2.80;;;2.80;;
64678;SDS011;51094;53.864;27.676;2022-12-18T09:53:02;2.67;;;2.67;;
64678;SDS011;51094;53.864;27.676;2022-12-18T09:55:43;3.00;;;2.90;;
64678;SDS011;51094;53.864;27.676;2022-12-18T10:00:43;2.60;;;2.60;;
64678;SDS011;51094;53.864;27.676;2022-12-18T10:03:13;2.70;;;2.70;;
64678;SDS011;51094;53.864;27.676;2022-12-18T10:08:33;2.85;;;2.85;;
64678;SDS011;51094;53.864;27.676;2022-12-18T10:11:12;2.80;;;2.70;;
64678;SDS011;51094;53.864;27.676;2022-12-18T10:14:03;2.92;;;2.92;;
64678;SDS011;51094;53.864;27.676;2022-12-18T10:16:40;2.53;;;2.53;;
64678;SDS011;51094;53.864;27.676;2022-12-18T10:28:10;2.72;;;2.72;;
64678;SDS011;51094;53.864;27.676;2022-12-18T10:30:40;2.78;;;2.78;;
64678;SDS011;51094;53.864;27.676;2022-12-18T10:33:10;2.92;;;2.92;;
64678;SDS011;51094;53.864;27.676;2022-12-18T10:35:40;2.72;;;2.72;;
64678;SDS011;51094;53.864;27.676;2022-12-18T10:40:51;2.50;;;2.50;;
64678;SDS011;51094;53.864;27.676;2022-12-18T10:54:20;2.65;;;2.65;;
64678;SDS011;51094;53.864;27.676;2022-12-18T10:56:48;2.47;;;2.47;;
64678;SDS011;51094;53.864;27.676;2022-12-18T10:59:16;2.97;;;2.90;;
64678;SDS011;51094;53.864;27.676;2022-12-18T11:01:57;2.97;;;2.88;;
64678;SDS011;51094;53.864;27.676;2022-12-18T11:07:02;2.60;;;2.60;;
64678;SDS011;51094;53.864;27.676;2022-12-18T11:09:35;2.60;;;2.60;;
64678;SDS011;51094;53.864;27.676;2022-12-18T11:12:04;2.72;;;2.63;;
64678;SDS011;51094;53.864;27.676;2022-12-18T11:14:42;2.72;;;2.72;;
64678;SDS011;51094;53.864;27.676;2022-12-18T11:17:19;2.75;;;2.75;;
64678;SDS011;51094;53.864;27.676;2022-12-18T11:19:59;2.97;;;2.95;;
64678;SDS011;51094;53.864;27.676;2022-12-18T11:22:28;2.60;;;2.60;;
64678;SDS011;51094;53.864;27.676;2022-12-18T11:27:50;2.60;;;2.60;;
64678;SDS011;51094;53.864;27.676;2022-12-18T11:33:11;2.75;;;2.75;;
64678;SDS011;51094;53.864;27.676;2022-12-18T11:38:18;2.85;;;2.75;;
64678;SDS011;51094;53.864;27.676;2022-12-18T11:40:51;2.70;;;2.70;;
64678;SDS011;51094;53.864;27.676;2022-12-18T11:43:29;2.70;;;2.70;;
64678;SDS011;51094;53.864;27.676;2022-12-18T11:51:25;2.65;;;2.65;;
64678;SDS011;51094;53.864;27.676;2022-12-18T11:53:56;2.70;;;2.70;;
64678;SDS011;51094;53.864;27.676;2022-12-18T11:56:27;2.63;;;2.63;;
64678;SDS011;51094;53.864;27.676;2022-12-18T12:01:55;2.92;;;2.92;;
64678;SDS011;51094;53.864;27.676;2022-12-18T12:04:35;2.42;;;2.42;;
64678;SDS011;51094;53.864;27.676;2022-12-18T12:08:13;2.63;;;2.63;;
64678;SDS011;51094;53.864;27.676;2022-12-18T12:13:15;2.72;;;2.72;;
64678;SDS011;51094;53.864;27.676;2022-12-18T12:24:16;2.60;;;2.60;;
64678;SDS011;51094;53.864;27.676;2022-12-18T12:26:49;2.67;;;2.67;;
64678;SDS011;51094;53.864;27.676;2022-12-18T12:32:05;2.60;;;2.60;;
64678;SDS011;51094;53.864;27.676;2022-12-18T12:35:00;2.72;;;2.72;;
64678;SDS011;51094;53.864;27.676;2022-12-18T12:38:02;2.75;;;2.75;;
64678;SDS011;51094;53.864;27.676;2022-12-18T12:40:35;2.80;;;2.80;;
64678;SDS011;51094;53.864;27.676;2022-12-18T12:43:38;2.80;;;2.70;;
64678;SDS011;51094;53.864;27.676;2022-12-18T12:46:17;2.60;;;2.60;;
64678;SDS011;51094;53.864;27.676;2022-12-18T12:48:50;2.80;;;2.80;;
64678;SDS011;51094;53.864;27.676;2022-12-18T12:51:21;2.67;;;2.67;;
64678;SDS011;51094;53.864;27.676;2022-12-18T12:53:52;2.85;;;2.85;;
64678;SDS011;51094;53.864;27.676;2022-12-18T12:56:21;2.90;;;2.90;;
64678;SDS011;51094;53.864;27.676;2022-12-18T13:02:16;2.65;;;2.65;;
64678;SDS011;51094;53.864;27.676;2022-12-18T13:07:47;2.78;;;2.78;;
64678;SDS011;51094;53.864;27.676;2022-12-18T13:15:31;2.80;;;2.70;;
64678;SDS011;51094;53.864;27.676;2022-12-18T13:18:10;2.80;;;2.80;;
64678;SDS011;51094;53.864;27.676;2022-12-18T13:20:43;2.42;;;2.42;;
64678;SDS011;51094;53.864;27.676;2022-12-18T13:31:14;2.60;;;2.60;;
64678;SDS011;51094;53.864;27.676;2022-12-18T13:36:55;2.53;;;2.53;;
64678;SDS011;51094;53.864;27.676;2022-12-18T13:39:41;2.50;;;2.50;;
64678;SDS011;51094;53.864;27.676;2022-12-18T13:44:38;2.42;;;2.42;;
64678;SDS011;51094;53.864;27.676;2022-12-18T13:47:24;2.47;;;2.47;;
64678;SDS011;51094;53.864;27.676;2022-12-18T13:49:57;2.78;;;2.67;;
64678;SDS011;51094;53.864;27.676;2022-12-18T13:52:25;2.72;;;2.72;;
64678;SDS011;51094;53.864;27.676;2022-12-18T13:54:55;2.85;;;2.78;;
64678;SDS011;51094;53.864;27.676;2022-12-18T13:59:51;2.80;;;2.80;;
64678;SDS011;51094;53.864;27.676;2022-12-18T14:02:22;2.75;;;2.75;;
64678;SDS011;51094;53.864;27.676;2022-12-18T14:04:54;2.83;;;2.80;;
64678;SDS011;51094;53.864;27.676;2022-12-18T14:07:25;2.78;;;2.78;;
64678;SDS011;51094;53.864;27.676;2022-12-18T14:10:11;3.08;;;3.05;;
64678;SDS011;51094;53.864;27.676;2022-12-18T14:13:05;2.92;;;2.85;;
64678;SDS011;51094;53.864;27.676;2022-12-18T14:15:43;3.35;;;3.25;;
64678;SDS011;51094;53.864;27.676;2022-12-18T14:18:23;2.85;;;2.85;;
64678;SDS011;51094;53.864;27.676;2022-12-18T14:21:17;2.72;;;2.72;;
64678;SDS011;51094;53.864;27.676;2022-12-18T14:24:13;2.65;;;2.65;;
64678;SDS011;51094;53.864;27.676;2022-12-18T14:26:45;2.47;;;2.47;;
64678;SDS011;51094;53.864;27.676;2022-12-18T14:32:10;2.60;;;2.60;;
64678;SDS011;51094;53.864;27.676;2022-12-18T14:34:51;2.60;;;2.60;;
64678;SDS011;51094;53.864;27.676;2022-12-18T14:37:25;2.60;;;2.60;;
64678;SDS011;51094;53.864;27.676;2022-12-18T14:39:54;2.88;;;2.88;;
64678;SDS011;51094;53.864;27.676;2022-12-18T14:42:36;2.42;;;2.42;;
64678;SDS011;51094;53.864;27.676;2022-12-18T14:48:15;2.63;;;2.63;;
64678;SDS011;51094;53.864;27.676;2022-12-18T14:50:59;2.67;;;2.67;;
64678;SDS011;51094;53.864;27.676;2022-12-18T14:53:33;2.92;;;2.90;;
64678;SDS011;51094;53.864;27.676;2022-12-18T14:56:00;3.10;;;3.10;;
64678;SDS011;51094;53.864;27.676;2022-12-18T14:58:28;3.38;;;3.28;;
64678;SDS011;51094;53.864;27.676;2022-12-18T15:00:54;2.75;;;2.75;;
64678;SDS011;51094;53.864;27.676;2022-12-18T15:03:22;3.25;;;3.17;;
64678;SDS011;51094;53.864;27.676;2022-12-18T15:05:50;2.97;;;2.97;;
64678;SDS011;51094;53.864;27.676;2022-12-18T15:08:27;2.80;;;2.80;;
64678;SDS011;51094;53.864;27.676;2022-12-18T15:10:58;2.70;;;2.70;;
64678;SDS011;51094;53.864;27.676;2022-12-18T15:13:27;2.92;;;2.90;;
64678;SDS011;51094;53.864;27.676;2022-12-18T15:15:55;3.10;;;3.00;;
64678;SDS011;51094;53.864;27.676;2022-12-18T15:18:31;2.72;;;2.63;;
64678;SDS011;51094;53.864;27.676;2022-12-18T15:21:11;2.80;;;2.70;;
64678;SDS011;51094;53.864;27.676;2022-12-18T15:26:12;2.90;;;2.90;;
64678;SDS011;51094;53.864;27.676;2022-12-18T15:28:51;2.80;;;2.70;;
64678;SDS011;51094;53.864;27.676;2022-12-18T15:31:32;2.65;;;2.65;;
64678;SDS011;51094;53.864;27.676;2022-12-18T15:39:03;2.60;;;2.60;;
64678;SDS011;51094;53.864;27.676;2022-12-18T15:41:33;3.25;;;3.15;;
64678;SDS011;51094;53.864;27.676;2022-12-18T15:44:02;3.28;;;3.17;;
64678;SDS011;51094;53.864;27.676;2022-12-18T15:46:30;3.00;;;2.90;;
64678;SDS011;51094;53.864;27.676;2022-12-18T15:48:58;2.88;;;2.88;;
64678;SDS011;51094;53.864;27.676;2022-12-18T15:51:35;3.53;;;3.42;;
64678;SDS011;51094;53.864;27.676;2022-12-18T15:54:04;3.08;;;3.08;;
64678;SDS011;51094;53.864;27.676;2022-12-18T15:56:39;3.55;;;3.45;;
64678;SDS011;51094;53.864;27.676;2022-12-18T15:59:25;3.58;;;3.47;;
64678;SDS011;51094;53.864;27.676;2022-12-18T16:01:53;3.25;;;3.15;;
64678;SDS011;51094;53.864;27.676;2022-12-18T16:04:21;3.80;;;3.70;;
64678;SDS011;51094;53.864;27.676;2022-12-18T16:06:49;3.22;;;3.13;;
64678;SDS011;51094;53.864;27.676;2022-12-18T16:09:38;3.40;;;3.30;;
64678;SDS011;51094;53.864;27.676;2022-12-18T16:12:08;3.47;;;3.38;;
64678;SDS011;51094;53.864;27.676;2022-12-18T16:14:45;4.00;;;3.90;;
64678;SDS011;51094;53.864;27.676;2022-12-18T16:17:13;3.65;;;3.55;;
64678;SDS011;51094;53.864;27.676;2022-12-18T16:19:42;3.88;;;3.78;;
64678;SDS011;51094;53.864;27.676;2022-12-18T16:22:28;3.78;;;3.67;;
64678;SDS011;51094;53.864;27.676;2022-12-18T16:24:57;3.78;;;3.67;;
64678;SDS011;51094;53.864;27.676;2022-12-18T16:27:25;3.78;;;3.67;;
64678;SDS011;51094;53.864;27.676;2022-12-18T16:29:53;3.83;;;3.72;;
64678;SDS011;51094;53.864;27.676;2022-12-18T16:32:21;3.95;;;3.85;;
64678;SDS011;51094;53.864;27.676;2022-12-18T16:34:50;3.70;;;3.60;;
64678;SDS011;51094;53.864;27.676;2022-12-18T16:37:26;3.65;;;3.55;;
64678;SDS011;51094;53.864;27.676;2022-12-18T16:39:56;3.85;;;3.75;;
64678;SDS011;51094;53.864;27.676;2022-12-18T16:42:26;4.10;;;4.00;;
64678;SDS011;51094;53.864;27.676;2022-12-18T16:44:54;3.72;;;3.63;;
64678;SDS011;51094;53.864;27.676;2022-12-18T16:47:23;3.65;;;3.55;;
64678;SDS011;51094;53.864;27.676;2022-12-18T16:49:51;3.85;;;3.75;;
64678;SDS011;51094;53.864;27.676;2022-12-18T16:52:19;3.75;;;3.65;;
64678;SDS011;51094;53.864;27.676;2022-12-18T16:54:50;4.18;;;4.07;;
64678;SDS011;51094;53.864;27.676;2022-12-18T16:57:18;4.72;;;4.63;;
64678;SDS011;51094;53.864;27.676;2022-12-18T16:59:51;4.43;;;4.32;;
64678;SDS011;51094;53.864;27.676;2022-12-18T17:02:23;4.20;;;4.10;;
64678;SDS011;51094;53.864;27.676;2022-12-18T17:04:55;4.13;;;4.03;;
64678;SDS011;51094;53.864;27.676;2022-12-18T17:07:27;4.20;;;4.10;;